createdAt,value
2023-04-14T00:02:16.006Z,100882.94
2023-04-14T00:04:43.880Z,100872.59
2023-04-14T00:07:13.138Z,100887.66
2023-04-14T00:09:42.005Z,100863.13
2023-04-14T00:12:09.718Z,100851.72
2023-04-14T00:14:37.429Z,100861.84
2023-04-14T00:17:05.171Z,100858.00
2023-04-14T00:19:34.295Z,100852.81
2023-04-14T00:22:02.131Z,100847.94
2023-04-14T00:24:29.878Z,100832.22
2023-04-14T00:26:57.974Z,100820.66
2023-04-14T00:29:25.869Z,100796.81
2023-04-14T00:31:53.576Z,100816.59
2023-04-14T00:34:21.285Z,100801.56
2023-04-14T00:36:50.370Z,100801.66
2023-04-14T00:39:18.119Z,100803.72
2023-04-14T00:41:45.963Z,100802.81
2023-04-14T00:44:13.910Z,100842.53
2023-04-14T00:46:42.813Z,100835.22
2023-04-14T00:49:11.296Z,100834.34
2023-04-14T00:51:39.291Z,100833.06
2023-04-14T00:54:09.656Z,100814.31
2023-04-14T00:56:37.501Z,100813.19
2023-04-14T00:59:07.539Z,100795.66
2023-04-14T01:01:36.635Z,100820.94
2023-04-14T01:04:04.634Z,100830.41
2023-04-14T01:06:33.068Z,100846.72
2023-04-14T01:09:01.833Z,100854.91
2023-04-14T01:11:38.285Z,100861.06
2023-04-14T01:14:12.578Z,100862.72
2023-04-14T01:16:42.728Z,100848.44
2023-04-14T01:19:31.859Z,100852.56
2023-04-14T01:22:04.625Z,100867.72
2023-04-14T01:24:41.925Z,100858.75
2023-04-14T01:27:32.017Z,100836.47
2023-04-14T01:30:19.678Z,100854.59
2023-04-14T01:32:50.838Z,100827.44
2023-04-14T01:35:22.012Z,100829.25
2023-04-14T01:37:55.549Z,100842.06
2023-04-14T01:40:25.983Z,100835.78
2023-04-14T01:42:59.462Z,100835.63
2023-04-14T01:45:30.005Z,100833.22
2023-04-14T01:48:00.518Z,100835.81
2023-04-14T01:50:29.596Z,100861.44
2023-04-14T01:52:59.132Z,100843.66
2023-04-14T01:55:29.650Z,100844.50
2023-04-14T01:57:58.587Z,100840.25
2023-04-14T02:00:27.204Z,100833.16
2023-04-14T02:02:56.428Z,100838.88
2023-04-14T02:05:27.697Z,100850.41
2023-04-14T02:07:56.604Z,100838.72
2023-04-14T02:10:25.833Z,100846.97
2023-04-14T02:12:58.198Z,100873.22
2023-04-14T02:15:28.566Z,100852.97
2023-04-14T02:17:58.247Z,100863.31
2023-04-14T02:20:29.035Z,100830.81
2023-04-14T02:22:56.894Z,100829.31
2023-04-14T02:25:27.363Z,100820.97
2023-04-14T02:27:57.397Z,100819.22
2023-04-14T02:30:30.483Z,100828.44
2023-04-14T02:33:02.966Z,100839.31
2023-04-14T02:35:38.437Z,100868.25
2023-04-14T02:38:09.447Z,100870.06
2023-04-14T02:40:42.197Z,100868.66
2023-04-14T02:43:14.471Z,100843.38
2023-04-14T02:45:46.989Z,100818.75
2023-04-14T02:48:17.437Z,100810.13
2023-04-14T02:50:49.312Z,100796.53
2023-04-14T02:53:21.622Z,100779.63
2023-04-14T02:55:51.452Z,100747.03
2023-04-14T02:58:19.466Z,100786.03
2023-04-14T03:00:48.016Z,100787.00
2023-04-14T03:03:17.025Z,100808.78
2023-04-14T03:05:48.629Z,100831.03
2023-04-14T03:08:18.011Z,100823.28
2023-04-14T03:10:47.233Z,100842.25
2023-04-14T03:13:16.398Z,100851.41
2023-04-14T03:15:46.548Z,100855.94
2023-04-14T03:18:15.780Z,100856.63
2023-04-14T03:20:45.753Z,100856.41
2023-04-14T03:23:18.926Z,100866.28
2023-04-14T03:25:48.784Z,100865.66
2023-04-14T03:28:20.316Z,100873.31
2023-04-14T03:30:54.204Z,100884.03
2023-04-14T03:33:25.984Z,100887.69
2023-04-14T03:35:57.089Z,100884.81
2023-04-14T03:38:28.213Z,100859.50
2023-04-14T03:41:01.100Z,100834.16
2023-04-14T03:43:29.363Z,100804.94
2023-04-14T03:45:57.551Z,100780.69
2023-04-14T03:48:27.347Z,100798.72
2023-04-14T03:50:57.778Z,100775.66
2023-04-14T03:53:27.989Z,100783.38
2023-04-14T03:55:59.806Z,100805.97
2023-04-14T03:58:29.573Z,100802.00
2023-04-14T04:00:58.461Z,100819.94
2023-04-14T04:03:27.865Z,100827.88
2023-04-14T04:05:56.057Z,100832.88
2023-04-14T04:08:24.771Z,100852.69
2023-04-14T04:10:56.071Z,100852.09
2023-04-14T04:13:25.299Z,100843.28
2023-04-14T04:15:53.690Z,100864.19
2023-04-14T04:18:23.740Z,100874.47
2023-04-14T04:20:51.828Z,100860.84
2023-04-14T04:23:22.740Z,100824.50
2023-04-14T04:25:51.152Z,100791.50
2023-04-14T04:28:20.649Z,100787.97
2023-04-14T04:30:49.933Z,100763.63
2023-04-14T04:33:18.565Z,100799.66
2023-04-14T04:35:47.843Z,100773.13
2023-04-14T04:38:15.635Z,100770.34
2023-04-14T04:40:43.390Z,100774.88
2023-04-14T04:43:11.110Z,100785.59
2023-04-14T04:45:51.183Z,100804.91
2023-04-14T04:48:18.876Z,100819.31
2023-04-14T04:50:46.563Z,100773.06
2023-04-14T04:53:14.291Z,100801.16
2023-04-14T04:55:42.277Z,100833.59
2023-04-14T04:58:10.462Z,100846.53
2023-04-14T05:00:38.169Z,100823.69
2023-04-14T05:03:07.313Z,100798.84
2023-04-14T05:05:37.105Z,100744.19
2023-04-14T05:08:05.146Z,100752.81
2023-04-14T05:10:35.342Z,100728.06
2023-04-14T05:13:03.634Z,100708.94
2023-04-14T05:15:31.843Z,100694.63
2023-04-14T05:18:01.616Z,100669.59
2023-04-14T05:20:32.153Z,100657.78
2023-04-14T05:23:00.740Z,100673.06
2023-04-14T05:25:28.478Z,100658.75
2023-04-14T05:27:56.260Z,100638.69
2023-04-14T05:30:24.573Z,100630.91
2023-04-14T05:32:52.284Z,100594.56
2023-04-14T05:35:20.019Z,100581.38
2023-04-14T05:37:49.084Z,100566.22
2023-04-14T05:40:16.801Z,100595.72
2023-04-14T05:42:44.510Z,100563.56
2023-04-14T05:45:12.571Z,100551.09
2023-04-14T05:47:40.778Z,100552.88
2023-04-14T05:50:09.461Z,100533.94
2023-04-14T05:52:37.154Z,100560.09
2023-04-14T05:55:07.118Z,100553.91
2023-04-14T05:57:35.011Z,100623.00
2023-04-14T06:00:02.830Z,100669.22
2023-04-14T06:02:30.684Z,100702.19
2023-04-14T06:04:59.772Z,100704.16
2023-04-14T06:07:27.640Z,100709.28
2023-04-14T06:09:55.704Z,100743.25
2023-04-14T06:12:24.778Z,100724.41
2023-04-14T06:14:52.563Z,100729.50
2023-04-14T06:17:21.142Z,100676.94
2023-04-14T06:19:49.167Z,100638.03
2023-04-14T06:22:19.783Z,100640.88
2023-04-14T06:24:47.612Z,100633.09
2023-04-14T06:27:15.791Z,100630.22
2023-04-14T06:29:44.852Z,100640.50
2023-04-14T06:32:12.738Z,100667.28
2023-04-14T06:34:40.635Z,100668.22
2023-04-14T06:37:08.354Z,100681.34
2023-04-14T06:39:36.309Z,100699.66
2023-04-14T06:42:04.060Z,100647.66
2023-04-14T06:44:31.770Z,100657.31
2023-04-14T06:47:00.846Z,100712.72
2023-04-14T06:49:29.398Z,100668.34
2023-04-14T06:51:57.153Z,100702.50
2023-04-14T06:54:24.990Z,100645.31
2023-04-14T06:56:52.739Z,100673.00
2023-04-14T06:59:21.165Z,100670.38
2023-04-14T07:01:48.997Z,100704.78
2023-04-14T07:04:19.296Z,100700.91
2023-04-14T07:06:47.145Z,100697.22
2023-04-14T07:09:14.966Z,100702.19
2023-04-14T07:11:42.795Z,100694.22
2023-04-14T07:14:10.506Z,100701.34
2023-04-14T07:16:38.191Z,100762.84
2023-04-14T07:19:05.909Z,100792.28
2023-04-14T07:21:35.035Z,100815.78
2023-04-14T07:24:02.965Z,100831.81
2023-04-14T07:26:30.911Z,100829.69
2023-04-14T07:28:58.639Z,100826.09
2023-04-14T07:31:26.673Z,100802.31
2023-04-14T07:33:54.436Z,100814.97
2023-04-14T07:36:22.217Z,100831.44
2023-04-14T07:38:52.091Z,100828.00
2023-04-14T07:41:21.197Z,100815.34
2023-04-14T07:43:48.915Z,100794.31
2023-04-14T07:46:16.692Z,100756.19
2023-04-14T07:48:44.617Z,100804.84
2023-04-14T07:51:12.566Z,100861.03
2023-04-14T07:53:43.244Z,100832.59
2023-04-14T07:56:12.786Z,100839.81
2023-04-14T07:58:40.710Z,100801.75
2023-04-14T08:01:08.911Z,100828.44
2023-04-14T08:03:37.895Z,100829.75
2023-04-14T08:06:06.879Z,100798.97
2023-04-14T08:08:34.701Z,100800.16
2023-04-14T08:11:02.492Z,100831.81
2023-04-14T08:13:31.606Z,100815.13
2023-04-14T08:15:59.375Z,100804.84
2023-04-14T08:18:27.421Z,100819.66
2023-04-14T08:20:55.114Z,100804.72
2023-04-14T08:23:22.911Z,100832.03
2023-04-14T08:25:50.713Z,100830.53
2023-04-14T08:28:18.430Z,100835.69
2023-04-14T08:30:47.744Z,100847.81
2023-04-14T08:33:15.858Z,100840.66
2023-04-14T08:35:44.027Z,100831.16
2023-04-14T08:38:12.067Z,100822.50
2023-04-14T08:40:41.529Z,100812.69
2023-04-14T08:43:09.452Z,100825.88
2023-04-14T08:45:37.862Z,100839.63
2023-04-14T08:48:07.147Z,100822.56
2023-04-14T08:50:38.450Z,100827.25
2023-04-14T08:53:10.791Z,100810.59
2023-04-14T08:55:41.711Z,100790.03
2023-04-14T08:58:11.430Z,100786.41
2023-04-14T09:00:40.052Z,100804.47
2023-04-14T09:03:10.040Z,100836.56
2023-04-14T09:05:38.456Z,100797.09
2023-04-14T09:08:06.286Z,100800.00
2023-04-14T09:10:35.694Z,100824.16
2023-04-14T09:13:05.509Z,100801.38
2023-04-14T09:15:33.404Z,100780.75
2023-04-14T09:18:01.293Z,100824.63
2023-04-14T09:20:40.346Z,100845.72
2023-04-14T09:23:10.087Z,100785.91
2023-04-14T09:25:39.611Z,100771.28
2023-04-14T09:28:07.461Z,100752.28
2023-04-14T09:30:35.339Z,100805.31
2023-04-14T09:33:05.948Z,100748.66
2023-04-14T09:35:47.359Z,100743.56
2023-04-14T09:38:15.355Z,100725.72
2023-04-14T09:40:44.217Z,100741.84
2023-04-14T09:43:25.255Z,100741.06
2023-04-14T09:45:53.129Z,100787.00
2023-04-14T09:48:21.267Z,100778.88
2023-04-14T09:51:00.929Z,100776.94
2023-04-14T09:53:30.300Z,100711.91
2023-04-14T09:55:59.753Z,100674.94
2023-04-14T09:58:31.595Z,100645.13
2023-04-14T10:01:00.495Z,100655.81
2023-04-14T10:03:36.067Z,100650.84
2023-04-14T10:06:07.717Z,100681.41
2023-04-14T10:08:37.692Z,100677.03
2023-04-14T10:11:19.235Z,100705.13
2023-04-14T10:13:47.852Z,100668.44
2023-04-14T10:16:15.968Z,100638.78
2023-04-14T10:18:44.193Z,100592.59
2023-04-14T10:21:14.808Z,100577.13
2023-04-14T10:23:43.374Z,100601.25
2023-04-14T10:26:12.740Z,100631.38
2023-04-14T10:28:43.273Z,100627.56
2023-04-14T10:31:16.054Z,100620.28
2023-04-14T10:33:44.220Z,100604.06
2023-04-14T10:36:13.493Z,100607.34
2023-04-14T10:38:43.494Z,100613.22
2023-04-14T10:41:12.886Z,100626.59
2023-04-14T10:43:41.714Z,100638.06
2023-04-14T10:46:11.080Z,100597.81
2023-04-14T10:48:41.329Z,100588.75
2023-04-14T10:51:10.788Z,100590.59
2023-04-14T10:53:47.490Z,100606.16
2023-04-14T10:56:15.333Z,100607.03
2023-04-14T10:58:54.664Z,100579.22
2023-04-14T11:01:24.117Z,100544.09
2023-04-14T11:03:52.037Z,100545.31
2023-04-14T11:06:52.813Z,100557.25
2023-04-14T11:09:34.501Z,100539.91
2023-04-14T11:12:07.389Z,100521.09
2023-04-14T11:14:36.985Z,100513.84
2023-04-14T11:17:05.953Z,100492.56
2023-04-14T11:19:34.311Z,100472.53
2023-04-14T11:22:02.041Z,100478.47
2023-04-14T11:24:32.274Z,100492.63
2023-04-14T11:27:00.159Z,100471.78
2023-04-14T11:29:27.995Z,100481.88
2023-04-14T11:32:02.862Z,100456.19
2023-04-14T11:34:30.729Z,100452.75
2023-04-14T11:36:58.518Z,100457.72
2023-04-14T11:39:26.432Z,100453.34
2023-04-14T11:41:56.044Z,100453.28
2023-04-14T11:44:23.861Z,100450.69
2023-04-14T11:46:51.651Z,100463.66
2023-04-14T11:49:20.626Z,100457.78
2023-04-14T11:51:49.918Z,100450.94
2023-04-14T11:54:18.539Z,100462.72
2023-04-14T11:56:46.418Z,100497.94
2023-04-14T11:59:15.489Z,100513.44
2023-04-14T12:01:43.354Z,100519.50
2023-04-14T12:04:12.402Z,100537.81
2023-04-14T12:06:40.685Z,100565.66
2023-04-14T12:09:10.125Z,100577.06
2023-04-14T12:11:38.161Z,100598.28
2023-04-14T12:14:06.155Z,100577.34
2023-04-14T12:16:35.491Z,100568.66
2023-04-14T12:19:03.591Z,100540.56
2023-04-14T12:21:31.864Z,100544.03
2023-04-14T12:23:59.620Z,100544.03
2023-04-14T12:26:28.235Z,100520.81
2023-04-14T12:28:59.062Z,100524.34
2023-04-14T12:31:31.168Z,100523.25
2023-04-14T12:34:05.357Z,100513.19
2023-04-14T12:36:48.896Z,100532.44
2023-04-14T12:39:18.179Z,100506.88
2023-04-14T12:41:46.912Z,100532.09
2023-04-14T12:44:16.529Z,100525.34
2023-04-14T12:46:49.857Z,100536.34
2023-04-14T12:49:42.839Z,100504.00
2023-04-14T12:52:10.550Z,100498.28
2023-04-14T12:54:52.222Z,100495.97
2023-04-14T12:57:21.747Z,100506.16
2023-04-14T12:59:49.425Z,100509.66
2023-04-14T13:02:17.928Z,100520.50
2023-04-14T13:04:47.145Z,100524.06
2023-04-14T13:07:14.926Z,100505.59
2023-04-14T13:09:43.653Z,100499.53
2023-04-14T13:12:11.397Z,100513.59
2023-04-14T13:14:39.437Z,100531.31
2023-04-14T13:17:07.348Z,100504.16
2023-04-14T13:19:35.101Z,100493.78
2023-04-14T13:22:04.163Z,100504.84
2023-04-14T13:24:31.888Z,100506.91
2023-04-14T13:26:59.605Z,100504.00
2023-04-14T13:29:27.376Z,100519.22
2023-04-14T13:31:55.092Z,100506.25
2023-04-14T13:34:22.836Z,100531.53
2023-04-14T13:36:50.657Z,100509.50
2023-04-14T13:39:20.220Z,100509.44
2023-04-14T13:41:47.951Z,100523.44
2023-04-14T13:44:15.707Z,100514.91
2023-04-14T13:46:44.712Z,100485.75
2023-04-14T13:49:12.883Z,100473.38
2023-04-14T13:51:40.991Z,100475.72
2023-04-14T13:54:08.707Z,100449.84
2023-04-14T13:56:37.812Z,100447.28
2023-04-14T13:59:05.670Z,100449.41
2023-04-14T14:01:33.994Z,100446.88
2023-04-14T14:04:01.994Z,100455.22
2023-04-14T14:06:29.967Z,100446.72
2023-04-14T14:09:05.286Z,100446.94
2023-04-14T14:11:34.459Z,100445.13
2023-04-14T14:14:04.019Z,100450.28
2023-04-14T14:16:37.126Z,100449.72
2023-04-14T14:19:07.295Z,100430.63
2023-04-14T14:21:35.709Z,100435.06
2023-04-14T14:24:03.997Z,100435.16
2023-04-14T14:26:31.978Z,100429.47
2023-04-14T14:28:59.729Z,100437.28
2023-04-14T14:31:29.068Z,100437.16
2023-04-14T14:33:57.601Z,100431.22
2023-04-14T14:36:26.680Z,100428.13
2023-04-14T14:38:54.412Z,100427.72
2023-04-14T14:41:22.431Z,100421.47
2023-04-14T14:43:51.063Z,100432.22
2023-04-14T14:46:18.965Z,100415.56
2023-04-14T14:48:48.138Z,100416.47
2023-04-14T14:51:15.964Z,100414.44
2023-04-14T14:53:43.647Z,100413.03
2023-04-14T14:56:11.621Z,100404.09
2023-04-14T14:58:39.551Z,100398.47
2023-04-14T15:01:07.698Z,100400.22
2023-04-14T15:03:35.741Z,100409.81
2023-04-14T15:06:05.284Z,100407.00
2023-04-14T15:08:33.076Z,100408.72
2023-04-14T15:11:00.852Z,100399.78
2023-04-14T15:13:29.412Z,100393.97
2023-04-14T15:15:57.154Z,100402.34
2023-04-14T15:18:24.914Z,100395.22
2023-04-14T15:20:54.238Z,100386.19
2023-04-14T15:23:23.372Z,100388.53
2023-04-14T15:25:51.140Z,100389.41
2023-04-14T15:28:18.924Z,100388.03
2023-04-14T15:30:46.732Z,100387.19
2023-04-14T15:33:14.449Z,100401.47
2023-04-14T15:35:42.183Z,100397.25
2023-04-14T15:38:09.900Z,100401.00
2023-04-14T15:40:40.631Z,100403.59
2023-04-14T15:43:08.349Z,100394.78
2023-04-14T15:45:36.141Z,100402.81
2023-04-14T15:48:04.034Z,100406.88
2023-04-14T15:50:32.171Z,100389.81
2023-04-14T15:52:59.854Z,100392.72
2023-04-14T15:55:28.416Z,100393.28
2023-04-14T15:57:57.479Z,100389.47
2023-04-14T16:00:26.037Z,100396.16
2023-04-14T16:02:53.812Z,100394.84
2023-04-14T16:05:21.756Z,100388.13
2023-04-14T16:07:49.520Z,100384.56
2023-04-14T16:10:17.290Z,100383.88
2023-04-14T16:12:44.997Z,100380.41
2023-04-14T16:15:14.183Z,100377.13
2023-04-14T16:17:42.165Z,100374.00
2023-04-14T16:20:11.432Z,100380.53
2023-04-14T16:22:39.276Z,100377.47
2023-04-14T16:25:08.109Z,100375.34
2023-04-14T16:27:35.849Z,100371.19
2023-04-14T16:30:03.815Z,100366.78
2023-04-14T16:32:32.901Z,100370.03
2023-04-14T16:35:01.105Z,100359.19
2023-04-14T16:37:28.883Z,100363.59
2023-04-14T16:39:56.936Z,100362.81
2023-04-14T16:42:25.259Z,100355.84
2023-04-14T16:44:53.450Z,100359.53
2023-04-14T16:47:22.003Z,100357.38
2023-04-14T16:49:51.685Z,100384.78
2023-04-14T16:52:19.800Z,100390.75
2023-04-14T16:54:47.533Z,100406.50
2023-04-14T16:57:15.453Z,100434.28
2023-04-14T16:59:43.148Z,100464.84
2023-04-14T17:02:11.188Z,100426.63
2023-04-14T17:04:39.228Z,100426.34
2023-04-14T17:07:08.381Z,100426.03
2023-04-14T17:09:36.253Z,100431.28
2023-04-14T17:12:03.967Z,100420.78
2023-04-14T17:14:32.528Z,100438.47
2023-04-14T17:17:00.420Z,100420.66
2023-04-14T17:19:28.410Z,100440.19
2023-04-14T17:21:56.176Z,100443.03
2023-04-14T17:24:25.302Z,100453.59
2023-04-14T17:26:53.086Z,100471.41
2023-04-14T17:29:20.793Z,100480.16
2023-04-14T17:31:48.614Z,100463.41
2023-04-14T17:34:18.484Z,100446.03
2023-04-14T17:36:47.305Z,100439.94
2023-04-14T17:39:15.280Z,100421.41
2023-04-14T17:41:44.630Z,100428.13
2023-04-14T17:44:12.689Z,100452.53
2023-04-14T17:46:40.367Z,100425.25
2023-04-14T17:49:08.335Z,100391.97
2023-04-14T17:51:36.145Z,100393.16
2023-04-14T17:54:05.258Z,100414.34
2023-04-14T17:56:33.014Z,100416.03
2023-04-14T17:59:02.374Z,100435.00
2023-04-14T18:01:30.128Z,100425.03
2023-04-14T18:04:00.326Z,100407.16
2023-04-14T18:06:28.685Z,100390.16
2023-04-14T18:08:56.396Z,100372.06
2023-04-14T18:11:24.489Z,100368.06
2023-04-14T18:13:52.404Z,100353.88
2023-04-14T18:16:22.189Z,100344.09
2023-04-14T18:18:50.152Z,100345.63
2023-04-14T18:21:18.688Z,100350.69
2023-04-14T18:24:47.858Z,100360.66
2023-04-14T18:26:34.072Z,100347.50
2023-04-14T18:29:02.040Z,100345.72
2023-04-14T18:31:31.523Z,100343.47
2023-04-14T18:34:03.769Z,100343.47
2023-04-14T18:36:32.558Z,100346.72
2023-04-14T18:39:01.380Z,100366.56
2023-04-14T18:41:29.475Z,100352.78
2023-04-14T18:43:57.516Z,100352.84
2023-04-14T18:46:25.394Z,100354.53
2023-04-14T18:48:55.343Z,100344.50
2023-04-14T18:51:23.092Z,100363.97
2023-04-14T18:53:50.821Z,100355.81
2023-04-14T18:56:18.637Z,100356.66
2023-04-14T18:58:46.581Z,100357.84
2023-04-14T19:01:14.328Z,100351.28
2023-04-14T19:03:42.125Z,100354.19
2023-04-14T19:06:11.442Z,100352.59
2023-04-14T19:08:39.158Z,100358.56
2023-04-14T19:11:07.542Z,100361.53
2023-04-14T19:13:35.596Z,100355.56
2023-04-14T19:16:08.436Z,100365.41
2023-04-14T19:18:37.133Z,100369.16
2023-04-14T19:21:05.033Z,100370.59
2023-04-14T19:23:34.142Z,100376.47
2023-04-14T19:26:02.433Z,100374.31
2023-04-14T19:28:30.630Z,100372.16
2023-04-14T19:30:58.332Z,100368.38
2023-04-14T19:33:26.968Z,100378.84
2023-04-14T19:35:54.752Z,100366.88
2023-04-14T19:38:22.479Z,100372.31
2023-04-14T19:40:52.816Z,100364.16
2023-04-14T19:43:20.508Z,100364.53
2023-04-14T19:45:52.503Z,100370.25
2023-04-14T19:48:24.017Z,100370.16
2023-04-14T19:50:54.506Z,100369.31
2023-04-14T19:53:23.394Z,100366.66
2023-04-14T19:55:53.621Z,100371.72
2023-04-14T19:58:21.836Z,100365.72
2023-04-14T20:00:51.598Z,100362.56
2023-04-14T20:03:20.294Z,100349.84
2023-04-14T20:05:51.779Z,100354.69
2023-04-14T20:08:20.337Z,100341.16
2023-04-14T20:10:51.153Z,100346.72
2023-04-14T20:13:21.500Z,100330.78
2023-04-14T20:15:49.630Z,100348.63
2023-04-14T20:18:18.343Z,100338.03
2023-04-14T20:20:46.976Z,100331.59
2023-04-14T20:23:14.661Z,100330.59
2023-04-14T20:25:44.055Z,100325.19
2023-04-14T20:28:11.871Z,100329.94
2023-04-14T20:30:41.713Z,100326.66
2023-04-14T20:33:09.453Z,100329.09
2023-04-14T20:35:39.297Z,100324.84
2023-04-14T20:38:07.506Z,100312.69
2023-04-14T20:40:35.434Z,100308.34
2023-04-14T20:43:03.741Z,100308.16
2023-04-14T20:45:32.142Z,100327.31
2023-04-14T20:48:02.008Z,100322.44
2023-04-14T20:50:30.055Z,100317.38
2023-04-14T20:52:57.760Z,100326.03
2023-04-14T20:55:26.167Z,100316.19
2023-04-14T20:57:54.479Z,100321.03
2023-04-14T21:00:22.203Z,100316.81
2023-04-14T21:02:51.833Z,100334.81
2023-04-14T21:05:21.968Z,100337.72
2023-04-14T21:07:49.707Z,100342.16
2023-04-14T21:10:17.442Z,100334.06
2023-04-14T21:14:54.143Z,100373.38
2023-04-14T21:15:53.036Z,100379.88
2023-04-14T21:18:21.711Z,100375.66
2023-04-14T21:20:50.815Z,100348.94
2023-04-14T21:23:18.891Z,100344.53
2023-04-14T21:25:46.859Z,100352.50
2023-04-14T21:28:14.676Z,100372.31
2023-04-14T21:30:42.552Z,100361.56
2023-04-14T21:33:10.802Z,100364.03
2023-04-14T21:35:38.713Z,100362.97
2023-04-14T21:38:08.057Z,100335.38
2023-04-14T21:40:35.840Z,100309.00
2023-04-14T21:43:03.527Z,100312.84
2023-04-14T21:45:31.336Z,100324.53
2023-04-14T21:47:59.126Z,100324.84
2023-04-14T21:50:26.908Z,100356.66
2023-04-14T21:52:54.663Z,100340.91
2023-04-14T21:55:23.767Z,100337.44
2023-04-14T21:57:52.428Z,100344.75
2023-04-14T22:00:20.546Z,100329.16
2023-04-14T22:02:49.623Z,100311.03
2023-04-14T22:05:17.570Z,100299.09
2023-04-14T22:07:46.375Z,100307.25
2023-04-14T22:10:14.643Z,100310.63
2023-04-14T22:12:44.672Z,100317.41
2023-04-14T22:15:12.502Z,100332.84
2023-04-14T22:17:40.226Z,100340.44
2023-04-14T22:20:09.635Z,100333.72
2023-04-14T22:22:37.466Z,100336.75
2023-04-14T22:25:05.733Z,100338.28
2023-04-14T22:27:34.440Z,100318.19
2023-04-14T22:30:04.947Z,100297.75
2023-04-14T22:32:33.184Z,100314.09
2023-04-14T22:35:01.969Z,100336.34
2023-04-14T22:37:29.673Z,100333.81
2023-04-14T22:39:57.711Z,100337.28
2023-04-14T22:42:26.048Z,100343.41
2023-04-14T22:44:54.362Z,100350.72
2023-04-14T22:47:23.563Z,100357.78
2023-04-14T22:49:51.762Z,100366.69
2023-04-14T22:52:19.821Z,100364.88
2023-04-14T22:54:48.647Z,100331.31
2023-04-14T22:57:16.492Z,100313.19
2023-04-14T22:59:44.187Z,100323.06
2023-04-14T23:02:12.697Z,100322.81
2023-04-14T23:04:42.133Z,100314.16
2023-04-14T23:07:09.946Z,100316.69
2023-04-14T23:09:37.688Z,100325.72
2023-04-14T23:12:06.233Z,100314.84
2023-04-14T23:14:33.985Z,100319.69
2023-04-14T23:17:01.789Z,100307.31
2023-04-14T23:19:29.517Z,100305.84
2023-04-14T23:21:58.620Z,100295.81
2023-04-14T23:24:26.743Z,100308.50
2023-04-14T23:26:54.461Z,100331.97
2023-04-14T23:29:22.188Z,100346.56
2023-04-14T23:31:50.041Z,100313.69
2023-04-14T23:34:17.793Z,100310.84
2023-04-14T23:36:47.264Z,100295.94
2023-04-14T23:39:16.349Z,100298.56
2023-04-14T23:41:44.047Z,100297.00
2023-04-14T23:44:11.728Z,100283.19
2023-04-14T23:46:40.681Z,100284.69
2023-04-14T23:49:23.562Z,100299.78
2023-04-14T23:51:52.772Z,100309.72
2023-04-14T23:54:21.866Z,100314.44
2023-04-14T23:56:49.591Z,100299.75
2023-04-14T23:59:17.671Z,100350.41
